createdAt,value
2022-08-17T00:00:51.699Z,76.99
2022-08-17T00:01:52.749Z,76.79
2022-08-17T00:02:43.937Z,76.39
2022-08-17T00:03:42.929Z,76.69
2022-08-17T00:04:47.030Z,76.28
2022-08-17T00:05:43.905Z,76.42
2022-08-17T00:06:42.906Z,77.23
2022-08-17T00:07:42.883Z,77.33
2022-08-17T00:08:42.873Z,77.23
2022-08-17T00:09:42.866Z,77.64
2022-08-17T00:10:42.845Z,77.67
2022-08-17T00:11:43.057Z,77.77
2022-08-17T00:12:44.735Z,77.87
2022-08-17T00:13:42.825Z,78.17
2022-08-17T00:14:42.812Z,78.08
2022-08-17T00:15:42.809Z,78.17
2022-08-17T00:16:55.871Z,78.08
2022-08-17T00:17:43.786Z,77.97
2022-08-17T00:18:53.808Z,78.08
2022-08-17T00:19:43.783Z,78.17
2022-08-17T00:20:42.754Z,77.87
2022-08-17T00:22:29.849Z,78.48
2022-08-17T00:22:43.750Z,78.82
2022-08-17T00:23:49.060Z,78.72
2022-08-17T00:24:43.712Z,79.22
2022-08-17T00:25:42.707Z,79.08
2022-08-17T00:26:44.877Z,78.82
2022-08-17T00:27:42.686Z,79.13
2022-08-17T00:28:42.670Z,79.08
2022-08-17T00:29:42.853Z,78.48
2022-08-17T00:30:50.849Z,78.48
2022-08-17T00:31:43.677Z,78.38
2022-08-17T00:33:23.255Z,78.78
2022-08-17T00:33:43.630Z,78.68
2022-08-17T00:34:42.616Z,78.48
2022-08-17T00:35:42.642Z,78.48
2022-08-17T00:36:42.589Z,78.58
2022-08-17T00:37:42.599Z,78.62
2022-08-17T00:38:42.576Z,78.82
2022-08-17T00:39:42.592Z,78.55
2022-08-17T00:40:44.507Z,79.16
2022-08-17T00:41:42.890Z,80.11
2022-08-17T00:42:42.590Z,80.31
2022-08-17T00:43:42.524Z,80.21
2022-08-17T00:44:42.514Z,81.02
2022-08-17T00:45:42.561Z,81.32
2022-08-17T00:46:42.500Z,81.23
2022-08-17T00:47:42.507Z,80.92
2022-08-17T00:48:42.568Z,80.41
2022-08-17T00:49:42.469Z,80.41
2022-08-17T00:50:42.458Z,80.72
2022-08-17T00:51:42.455Z,81.32
2022-08-17T00:52:42.483Z,81.23
2022-08-17T00:53:42.432Z,81.32
2022-08-17T00:54:42.662Z,81.23
2022-08-17T00:55:42.416Z,81.23
2022-08-17T00:56:42.399Z,81.39
2022-08-17T00:57:42.410Z,80.78
2022-08-17T00:58:42.605Z,80.58
2022-08-17T00:59:42.705Z,80.18
2022-08-17T01:00:42.450Z,80.47
2022-08-17T01:01:42.376Z,80.27
2022-08-17T01:02:43.056Z,80.07
2022-08-17T01:03:42.338Z,80.18
2022-08-17T01:04:42.323Z,79.67
2022-08-17T01:05:42.644Z,80.11
2022-08-17T01:06:42.321Z,80.21
2022-08-17T01:07:42.308Z,80.21
2022-08-17T01:08:42.292Z,80.41
2022-08-17T01:09:42.283Z,80.41
2022-08-17T01:10:59.866Z,80.31
2022-08-17T01:11:43.279Z,80.72
2022-08-17T01:12:42.289Z,81.43
2022-08-17T01:13:42.264Z,80.62
2022-08-17T01:14:42.225Z,80.52
2022-08-17T01:15:42.218Z,80.45
2022-08-17T01:16:42.223Z,80.41
2022-08-17T01:17:42.210Z,80.35
2022-08-17T01:18:42.195Z,81.57
2022-08-17T01:19:42.272Z,81.67
2022-08-17T01:20:47.902Z,80.45
2022-08-17T01:21:42.181Z,81.37
2022-08-17T01:22:42.185Z,81.37
2022-08-17T01:23:42.147Z,81.97
2022-08-17T01:24:42.129Z,82.38
2022-08-17T01:25:42.120Z,82.48
2022-08-17T01:26:42.127Z,82.48
2022-08-17T01:27:42.097Z,81.77
2022-08-17T01:28:54.180Z,82.28
2022-08-17T01:29:43.085Z,82.38
2022-08-17T01:30:56.943Z,82.28
2022-08-17T01:31:43.077Z,82.28
2022-08-17T01:32:42.195Z,82.48
2022-08-17T01:33:42.045Z,82.62
2022-08-17T01:34:43.589Z,82.68
2022-08-17T01:35:43.106Z,83.18
2022-08-17T01:36:42.020Z,83.59
2022-08-17T01:37:42.017Z,83.09
2022-08-17T01:38:41.995Z,82.89
2022-08-17T01:39:42.068Z,82.14
2022-08-17T01:40:41.975Z,82.48
2022-08-17T01:41:41.967Z,81.87
2022-08-17T01:42:42.004Z,81.77
2022-08-17T01:43:41.944Z,81.77
2022-08-17T01:44:41.927Z,81.26
2022-08-17T01:45:41.932Z,82.21
2022-08-17T01:46:41.924Z,82.01
2022-08-17T01:47:41.923Z,83.37
2022-08-17T01:48:41.899Z,83.77
2022-08-17T01:49:41.892Z,83.37
2022-08-17T01:50:41.882Z,83.53
2022-08-17T01:51:41.895Z,83.33
2022-08-17T01:52:41.961Z,83.03
2022-08-17T01:53:41.860Z,83.09
2022-08-17T01:54:41.836Z,83.09
2022-08-17T01:55:41.836Z,82.58
2022-08-17T01:56:41.819Z,82.98
2022-08-17T01:57:41.833Z,82.58
2022-08-17T01:58:41.805Z,82.78
2022-08-17T01:59:41.797Z,83.86
2022-08-17T02:00:59.726Z,82.75
2022-08-17T02:01:42.848Z,82.34
2022-08-17T02:02:41.854Z,82.24
2022-08-17T02:03:41.759Z,81.93
2022-08-17T02:04:42.747Z,82.34
2022-08-17T02:05:41.740Z,81.02
2022-08-17T02:06:52.879Z,80.65
2022-08-17T02:07:59.741Z,81.26
2022-08-17T02:09:01.932Z,81.26
2022-08-17T02:09:42.771Z,80.90
2022-08-17T02:10:46.652Z,81.40
2022-08-17T02:11:42.701Z,81.71
2022-08-17T02:12:41.690Z,82.52
2022-08-17T02:13:41.660Z,82.31
2022-08-17T02:14:41.668Z,82.21
2022-08-17T02:15:41.853Z,82.35
2022-08-17T02:16:41.633Z,82.25
2022-08-17T02:17:41.631Z,82.56
2022-08-17T02:18:41.648Z,83.17
2022-08-17T02:19:41.595Z,83.47
2022-08-17T02:20:42.859Z,83.17
2022-08-17T02:21:41.582Z,82.52
2022-08-17T02:22:41.630Z,82.15
2022-08-17T02:23:41.579Z,82.66
2022-08-17T02:24:59.932Z,82.76
2022-08-17T02:25:42.546Z,82.66
2022-08-17T02:26:41.540Z,83.10
2022-08-17T02:27:41.615Z,83.37
2022-08-17T02:28:41.526Z,84.01
2022-08-17T02:29:41.512Z,83.67
2022-08-17T02:30:59.802Z,83.98
2022-08-17T02:31:42.488Z,83.87
2022-08-17T02:32:41.503Z,83.77
2022-08-17T02:33:43.188Z,83.98
2022-08-17T02:34:41.467Z,83.17
2022-08-17T02:35:41.453Z,83.31
2022-08-17T02:36:41.830Z,83.71
2022-08-17T02:37:41.581Z,83.51
2022-08-17T02:38:41.428Z,84.01
2022-08-17T02:39:41.460Z,84.22
2022-08-17T02:40:41.411Z,83.81
2022-08-17T02:41:41.399Z,84.01
2022-08-17T02:42:41.411Z,83.81
2022-08-17T02:43:41.379Z,84.42
2022-08-17T02:44:41.369Z,83.40
2022-08-17T02:45:41.436Z,83.40
2022-08-17T02:46:41.504Z,83.67
2022-08-17T02:47:41.415Z,83.31
2022-08-17T02:48:41.353Z,83.87
2022-08-17T02:49:45.113Z,83.57
2022-08-17T02:50:42.314Z,82.86
2022-08-17T02:51:41.303Z,82.90
2022-08-17T02:53:01.583Z,83.71
2022-08-17T02:53:42.387Z,84.22
2022-08-17T02:54:42.507Z,83.91
2022-08-17T02:55:41.263Z,83.81
2022-08-17T02:56:41.261Z,83.91
2022-08-17T02:57:41.271Z,83.81
2022-08-17T02:58:41.243Z,83.91
2022-08-17T02:59:46.741Z,84.42
2022-08-17T03:00:42.229Z,84.12
2022-08-17T03:01:41.247Z,84.05
2022-08-17T03:02:41.232Z,84.05
2022-08-17T03:03:41.199Z,84.26
2022-08-17T03:04:41.192Z,83.85
2022-08-17T03:05:41.173Z,84.36
2022-08-17T03:06:41.163Z,84.87
2022-08-17T03:07:41.155Z,85.27
2022-08-17T03:08:41.157Z,84.97
2022-08-17T03:09:41.131Z,85.31
2022-08-17T03:10:41.127Z,85.58
2022-08-17T03:11:41.111Z,85.47
2022-08-17T03:12:41.115Z,85.17
2022-08-17T03:13:41.107Z,85.52
2022-08-17T03:14:41.852Z,85.17
2022-08-17T03:15:43.882Z,85.21
2022-08-17T03:16:41.071Z,85.52
2022-08-17T03:17:41.056Z,85.92
2022-08-17T03:18:41.070Z,85.78
2022-08-17T03:19:43.063Z,86.13
2022-08-17T03:20:41.045Z,86.02
2022-08-17T03:21:41.018Z,85.92
2022-08-17T03:22:41.021Z,86.02
2022-08-17T03:23:41.010Z,85.52
2022-08-17T03:24:40.987Z,86.02
2022-08-17T03:25:40.977Z,86.13
2022-08-17T03:26:40.977Z,85.92
2022-08-17T03:27:41.978Z,85.92
2022-08-17T03:28:40.955Z,86.13
2022-08-17T03:29:40.974Z,86.02
2022-08-17T03:30:40.937Z,85.92
2022-08-17T03:31:40.940Z,85.52
2022-08-17T03:32:40.918Z,86.13
2022-08-17T03:33:40.922Z,85.92
2022-08-17T03:34:40.893Z,85.98
2022-08-17T03:35:40.895Z,85.72
2022-08-17T03:36:40.882Z,85.88
2022-08-17T03:37:40.863Z,85.98
2022-08-17T03:38:41.161Z,86.08
2022-08-17T03:39:40.917Z,85.88
2022-08-17T03:40:56.792Z,85.52
2022-08-17T03:41:41.828Z,85.52
2022-08-17T03:42:40.826Z,85.82
2022-08-17T03:43:40.822Z,86.13
2022-08-17T03:44:40.853Z,86.08
2022-08-17T03:45:40.784Z,86.29
2022-08-17T03:46:40.785Z,86.19
2022-08-17T03:47:40.820Z,86.08
2022-08-17T03:48:40.763Z,85.98
2022-08-17T03:49:40.753Z,86.39
2022-08-17T03:50:40.745Z,85.98
2022-08-17T03:51:40.735Z,85.78
2022-08-17T03:52:40.722Z,85.88
2022-08-17T03:53:40.731Z,85.58
2022-08-17T03:54:40.713Z,85.88
2022-08-17T03:55:40.695Z,86.08
2022-08-17T03:56:40.692Z,86.13
2022-08-17T03:57:40.683Z,85.88
2022-08-17T03:58:40.699Z,85.92
2022-08-17T03:59:40.868Z,85.62
2022-08-17T04:00:40.910Z,85.41
2022-08-17T04:01:40.682Z,85.52
2022-08-17T04:02:40.623Z,85.55
2022-08-17T04:03:40.634Z,85.72
2022-08-17T04:04:40.612Z,85.72
2022-08-17T04:05:40.594Z,86.07
2022-08-17T04:06:40.593Z,85.96
2022-08-17T04:07:40.600Z,86.37
2022-08-17T04:08:40.570Z,86.27
2022-08-17T04:09:40.555Z,86.27
2022-08-17T04:10:41.949Z,86.16
2022-08-17T04:11:40.532Z,86.37
2022-08-17T04:12:40.544Z,86.47
2022-08-17T04:13:40.518Z,87.04
2022-08-17T04:14:52.960Z,87.29
2022-08-17T04:15:41.496Z,87.65
2022-08-17T04:16:40.553Z,87.55
2022-08-17T04:17:40.491Z,88.06
2022-08-17T04:18:40.470Z,87.65
2022-08-17T04:19:40.454Z,87.65
2022-08-17T04:20:40.450Z,87.55
2022-08-17T04:21:40.482Z,87.51
2022-08-17T04:22:40.448Z,87.14
2022-08-17T04:23:40.425Z,87.00
2022-08-17T04:24:40.413Z,86.69
2022-08-17T04:25:40.402Z,86.80
2022-08-17T04:26:52.234Z,87.00
2022-08-17T04:27:41.413Z,86.80
2022-08-17T04:28:40.375Z,86.69
2022-08-17T04:29:50.049Z,87.00
2022-08-17T04:30:41.354Z,86.90
2022-08-17T04:31:40.345Z,86.80
2022-08-17T04:33:19.177Z,86.80
2022-08-17T04:33:41.327Z,86.49
2022-08-17T04:34:40.312Z,86.80
2022-08-17T04:35:40.305Z,87.20
2022-08-17T04:36:40.301Z,87.20
2022-08-17T04:37:41.366Z,86.59
2022-08-17T04:38:40.287Z,85.78
2022-08-17T04:39:40.327Z,85.27
2022-08-17T04:40:40.260Z,84.97
2022-08-17T04:41:40.250Z,85.17
2022-08-17T04:42:40.271Z,85.31
2022-08-17T04:43:40.245Z,85.72
2022-08-17T04:44:40.225Z,85.96
2022-08-17T04:45:40.213Z,86.43
2022-08-17T04:46:41.206Z,86.88
2022-08-17T04:47:40.189Z,87.24
2022-08-17T04:48:40.196Z,87.34
2022-08-17T04:49:40.177Z,87.55
2022-08-17T04:50:40.170Z,86.83
2022-08-17T04:51:40.165Z,86.53
2022-08-17T04:52:54.438Z,86.22
2022-08-17T04:53:41.257Z,86.43
2022-08-17T04:54:40.139Z,86.53
2022-08-17T04:55:40.164Z,86.43
2022-08-17T04:56:40.119Z,86.63
2022-08-17T04:57:44.536Z,86.39
2022-08-17T04:58:40.201Z,86.39
2022-08-17T04:59:40.091Z,86.69
2022-08-17T05:00:40.085Z,86.59
2022-08-17T05:01:40.103Z,86.49
2022-08-17T05:02:40.164Z,86.96
2022-08-17T05:03:41.060Z,86.86
2022-08-17T05:04:40.035Z,86.71
2022-08-17T05:05:40.031Z,86.82
2022-08-17T05:06:40.012Z,86.51
2022-08-17T05:07:40.005Z,86.07
2022-08-17T05:08:40.001Z,86.16
2022-08-17T05:09:40.031Z,85.86
2022-08-17T05:10:45.507Z,85.86
2022-08-17T05:11:44.822Z,85.25
2022-08-17T05:12:39.961Z,85.05
2022-08-17T05:13:39.959Z,84.95
2022-08-17T05:14:39.938Z,85.15
2022-08-17T05:15:39.932Z,84.75
2022-08-17T05:16:40.919Z,84.95
2022-08-17T05:17:39.920Z,85.46
2022-08-17T05:18:39.934Z,85.15
2022-08-17T05:19:39.894Z,84.95
2022-08-17T05:20:39.877Z,84.91
2022-08-17T05:21:39.870Z,84.20
2022-08-17T05:22:39.857Z,84.61
2022-08-17T05:23:43.137Z,84.10
2022-08-17T05:24:50.467Z,83.86
2022-08-17T05:25:40.831Z,83.59
2022-08-17T05:26:39.902Z,83.86
2022-08-17T05:27:39.815Z,84.06
2022-08-17T05:28:39.849Z,83.35
2022-08-17T05:29:39.789Z,82.95
2022-08-17T05:30:39.780Z,83.25
2022-08-17T05:31:39.771Z,83.65
2022-08-17T05:32:40.462Z,83.35
2022-08-17T05:33:43.984Z,83.51
2022-08-17T05:34:39.738Z,83.82
2022-08-17T05:35:39.731Z,83.51
2022-08-17T05:36:43.955Z,82.90
2022-08-17T05:37:39.709Z,83.61
2022-08-17T05:38:39.704Z,84.02
2022-08-17T05:39:39.771Z,83.51
2022-08-17T05:40:39.679Z,84.02
2022-08-17T05:41:39.666Z,84.12
2022-08-17T05:42:39.674Z,83.61
2022-08-17T05:43:39.671Z,83.82
2022-08-17T05:44:39.708Z,84.02
2022-08-17T05:45:55.907Z,83.61
2022-08-17T05:46:40.621Z,83.72
2022-08-17T05:47:39.613Z,83.72
2022-08-17T05:48:40.454Z,83.78
2022-08-17T05:49:39.599Z,83.58
2022-08-17T05:50:39.580Z,83.37
2022-08-17T05:51:39.655Z,83.78
2022-08-17T05:52:39.561Z,83.54
2022-08-17T05:53:39.564Z,83.03
2022-08-17T05:54:39.548Z,83.44
2022-08-17T05:55:39.529Z,83.13
2022-08-17T05:56:39.531Z,83.23
2022-08-17T05:57:49.674Z,82.99
2022-08-17T05:58:40.512Z,82.79
2022-08-17T05:59:39.491Z,82.59
2022-08-17T06:00:41.825Z,82.39
2022-08-17T06:01:39.542Z,82.14
2022-08-17T06:02:42.016Z,82.55
2022-08-17T06:03:40.464Z,81.74
2022-08-17T06:04:39.523Z,82.24
2022-08-17T06:05:39.437Z,81.64
2022-08-17T06:06:39.415Z,81.50
2022-08-17T06:07:39.409Z,81.40
2022-08-17T06:08:39.416Z,80.19
2022-08-17T06:09:39.391Z,81.05
2022-08-17T06:10:39.394Z,81.05
2022-08-17T06:11:39.382Z,80.76
2022-08-17T06:12:39.361Z,80.11
2022-08-17T06:13:39.369Z,79.91
2022-08-17T06:14:39.343Z,79.71
2022-08-17T06:15:39.347Z,79.61
2022-08-17T06:16:39.323Z,79.61
2022-08-17T06:17:39.327Z,79.81
2022-08-17T06:18:39.315Z,79.41
2022-08-17T06:19:39.298Z,78.86
2022-08-17T06:20:39.302Z,78.96
2022-08-17T06:21:39.358Z,78.46
2022-08-17T06:22:39.355Z,78.22
2022-08-17T06:23:39.268Z,78.12
2022-08-17T06:24:39.246Z,78.22
2022-08-17T06:25:39.239Z,78.02
2022-08-17T06:26:42.970Z,77.68
2022-08-17T06:27:39.223Z,77.28
2022-08-17T06:28:39.253Z,76.17
2022-08-17T06:29:39.218Z,76.27
2022-08-17T06:30:57.759Z,76.03
2022-08-17T06:31:40.188Z,75.23
2022-08-17T06:32:39.168Z,74.73
2022-08-17T06:33:39.178Z,74.52
2022-08-17T06:34:39.157Z,73.88
2022-08-17T06:35:39.138Z,73.78
2022-08-17T06:36:39.131Z,74.38
2022-08-17T06:37:39.136Z,74.55
2022-08-17T06:38:39.138Z,74.15
2022-08-17T06:39:39.155Z,74.35
2022-08-17T06:40:39.092Z,74.11
2022-08-17T06:41:39.086Z,73.61
2022-08-17T06:43:05.710Z,73.38
2022-08-17T06:43:40.091Z,73.58
2022-08-17T06:44:43.631Z,72.87
2022-08-17T06:45:40.048Z,72.53
2022-08-17T06:46:39.050Z,72.74
2022-08-17T06:47:39.023Z,72.53
2022-08-17T06:48:39.011Z,72.13
2022-08-17T06:49:39.025Z,72.03
2022-08-17T06:50:38.994Z,72.03
2022-08-17T06:51:38.985Z,72.24
2022-08-17T06:52:46.656Z,72.20
2022-08-17T06:53:39.961Z,72.10
2022-08-17T06:54:38.966Z,71.80
2022-08-17T06:55:38.948Z,70.66
2022-08-17T06:56:53.727Z,70.06
2022-08-17T06:57:39.927Z,70.12
2022-08-17T06:58:40.285Z,70.23
2022-08-17T06:59:54.618Z,69.82
2022-08-17T07:00:40.001Z,69.99
2022-08-17T07:01:38.933Z,69.59
2022-08-17T07:02:52.431Z,69.39
2022-08-17T07:03:39.872Z,68.46
2022-08-17T07:04:38.876Z,68.05
2022-08-17T07:05:38.938Z,67.76
2022-08-17T07:06:38.836Z,67.52
2022-08-17T07:07:38.838Z,66.32
2022-08-17T07:08:38.836Z,66.92
2022-08-17T07:09:38.817Z,67.12
2022-08-17T07:10:38.805Z,66.49
2022-08-17T07:11:38.790Z,66.19
2022-08-17T07:12:38.787Z,66.55
2022-08-17T07:13:38.795Z,65.86
2022-08-17T07:14:38.761Z,65.05
2022-08-17T07:15:38.758Z,65.05
2022-08-17T07:16:38.745Z,65.16
2022-08-17T07:17:48.064Z,65.52
2022-08-17T07:18:38.743Z,64.92
2022-08-17T07:19:38.714Z,64.52
2022-08-17T07:20:38.704Z,64.69
2022-08-17T07:21:38.702Z,64.00
2022-08-17T07:22:50.572Z,64.16
2022-08-17T07:23:39.693Z,63.46
2022-08-17T07:24:38.665Z,62.73
2022-08-17T07:25:38.659Z,63.00
2022-08-17T07:26:38.647Z,61.65
2022-08-17T07:27:38.643Z,61.22
2022-08-17T07:28:38.647Z,59.86
2022-08-17T07:29:38.623Z,58.74
2022-08-17T07:30:46.954Z,56.99
2022-08-17T07:31:39.601Z,56.37
2022-08-17T07:32:38.588Z,55.74
2022-08-17T07:33:38.601Z,55.49
2022-08-17T07:34:38.564Z,54.87
2022-08-17T07:35:41.415Z,54.28
2022-08-17T07:36:39.551Z,52.96
2022-08-17T07:37:38.545Z,52.91
2022-08-17T07:38:38.556Z,52.31
2022-08-17T07:39:59.609Z,52.31
2022-08-17T07:40:39.554Z,52.71
2022-08-17T07:41:57.555Z,52.39
2022-08-17T07:42:44.535Z,52.29
2022-08-17T07:43:38.490Z,52.51
2022-08-17T07:44:38.484Z,52.02
2022-08-17T07:45:38.463Z,52.41
2022-08-17T07:46:38.453Z,52.02
2022-08-17T07:47:38.449Z,52.64
2022-08-17T07:48:38.446Z,52.02
2022-08-17T07:49:38.439Z,51.84
2022-08-17T07:50:38.411Z,52.94
2022-08-17T07:51:38.450Z,52.44
2022-08-17T07:52:50.397Z,52.22
2022-08-17T07:53:39.397Z,52.09
2022-08-17T07:54:38.395Z,51.30
2022-08-17T07:55:38.370Z,50.06
2022-08-17T07:56:38.413Z,49.37
2022-08-17T07:57:38.353Z,49.32
2022-08-17T07:58:38.338Z,48.49
2022-08-17T07:59:38.357Z,46.56
2022-08-17T08:00:38.319Z,45.95
2022-08-17T08:01:39.632Z,45.46
2022-08-17T08:02:38.317Z,45.04
2022-08-17T08:03:38.300Z,45.61
2022-08-17T08:05:50.162Z,45.19
2022-08-17T08:06:39.279Z,44.88
2022-08-17T08:07:38.288Z,43.38
2022-08-17T08:08:38.294Z,43.28
2022-08-17T08:09:38.253Z,43.70
2022-08-17T08:10:38.249Z,43.77
2022-08-17T08:11:42.441Z,42.69
2022-08-17T08:12:39.213Z,43.20
2022-08-17T08:13:38.205Z,43.89
2022-08-17T08:14:38.206Z,43.79
2022-08-17T08:15:38.186Z,44.76
2022-08-17T08:16:38.219Z,43.57
2022-08-17T08:17:38.167Z,43.68
2022-08-17T08:18:53.636Z,42.57
2022-08-17T08:19:39.169Z,43.46
2022-08-17T08:20:52.103Z,42.79
2022-08-17T08:21:39.212Z,42.59
2022-08-17T08:22:38.115Z,42.96
2022-08-17T08:23:38.105Z,42.49
2022-08-17T08:24:38.168Z,43.18
2022-08-17T08:25:38.087Z,42.69
2022-08-17T08:26:38.080Z,42.69
2022-08-17T08:27:38.071Z,42.86
2022-08-17T08:28:38.052Z,42.38
2022-08-17T08:29:38.092Z,41.67
2022-08-17T08:30:38.057Z,40.86
2022-08-17T08:31:42.170Z,41.43
2022-08-17T08:32:38.030Z,41.09
2022-08-17T08:33:38.013Z,40.98
2022-08-17T08:34:53.495Z,39.00
2022-08-17T08:35:39.004Z,39.37
2022-08-17T08:37:14.145Z,39.45
2022-08-17T08:37:42.633Z,37.77
2022-08-17T08:38:38.010Z,37.54
2022-08-17T08:39:38.061Z,36.82
2022-08-17T08:40:37.969Z,35.92
2022-08-17T08:41:37.940Z,34.94
2022-08-17T08:42:37.954Z,34.81
2022-08-17T08:43:37.932Z,33.92
2022-08-17T08:44:59.702Z,33.88
2022-08-17T08:45:38.980Z,32.49
2022-08-17T08:46:37.891Z,32.40
2022-08-17T08:47:37.928Z,33.11
2022-08-17T08:48:58.186Z,32.78
2022-08-17T08:50:02.584Z,32.08
2022-08-17T08:50:38.872Z,32.18
2022-08-17T08:51:37.850Z,31.71
2022-08-17T08:52:37.841Z,32.21
2022-08-17T08:53:37.826Z,32.79
2022-08-17T08:54:37.828Z,32.71
2022-08-17T08:55:37.842Z,33.02
2022-08-17T08:56:37.853Z,32.15
2022-08-17T08:57:37.801Z,31.46
2022-08-17T08:58:41.951Z,30.83
2022-08-17T08:59:41.836Z,31.76
2022-08-17T09:00:37.864Z,31.18
2022-08-17T09:01:37.947Z,30.32
2022-08-17T09:02:37.840Z,30.00
2022-08-17T09:03:52.166Z,29.52
2022-08-17T09:05:10.650Z,30.61
2022-08-17T09:05:38.755Z,31.30
2022-08-17T09:06:39.453Z,31.40
2022-08-17T09:07:37.831Z,31.60
2022-08-17T09:08:37.718Z,30.93
2022-08-17T09:09:37.719Z,31.04
2022-08-17T09:10:37.826Z,31.63
2022-08-17T09:12:02.220Z,31.45
2022-08-17T09:12:38.658Z,31.85
2022-08-17T09:13:37.699Z,31.56
2022-08-17T09:14:46.730Z,31.38
2022-08-17T09:15:38.717Z,32.26
2022-08-17T09:16:37.661Z,31.30
2022-08-17T09:17:37.624Z,31.90
2022-08-17T09:19:01.043Z,32.21
2022-08-17T09:19:38.601Z,33.01
2022-08-17T09:20:37.632Z,33.79
2022-08-17T09:21:37.648Z,32.43
2022-08-17T09:22:38.581Z,33.36
2022-08-17T09:23:37.578Z,33.09
2022-08-17T09:24:37.553Z,33.77
2022-08-17T09:25:37.546Z,33.17
2022-08-17T09:26:37.575Z,32.50
2022-08-17T09:27:37.537Z,32.10
2022-08-17T09:28:37.542Z,30.47
2022-08-17T09:29:37.516Z,27.58
2022-08-17T09:30:37.512Z,27.25
2022-08-17T09:31:49.181Z,25.37
2022-08-17T09:32:38.489Z,24.20
2022-08-17T09:33:37.508Z,25.27
2022-08-17T09:34:37.480Z,25.59
2022-08-17T09:35:37.630Z,24.93
2022-08-17T09:36:37.461Z,26.21
2022-08-17T09:37:37.443Z,26.53
2022-08-17T09:38:37.437Z,27.33
2022-08-17T09:39:37.440Z,28.12
2022-08-17T09:40:37.415Z,27.03
2022-08-17T09:41:37.424Z,25.62
2022-08-17T09:42:37.404Z,25.99
2022-08-17T09:43:37.395Z,25.60
2022-08-17T09:44:37.388Z,25.89
2022-08-17T09:45:37.381Z,24.71
2022-08-17T09:46:38.954Z,25.13
2022-08-17T09:47:37.364Z,27.10
2022-08-17T09:48:37.351Z,27.21
2022-08-17T09:49:37.347Z,27.26
2022-08-17T09:51:03.747Z,29.05
2022-08-17T09:51:38.384Z,30.14
2022-08-17T09:52:37.317Z,30.05
2022-08-17T09:53:37.306Z,29.86
2022-08-17T09:54:39.855Z,30.44
2022-08-17T09:55:37.287Z,30.04
2022-08-17T09:56:40.009Z,29.66
2022-08-17T09:57:37.270Z,28.89
2022-08-17T09:58:37.266Z,28.50
2022-08-17T09:59:38.572Z,28.69
2022-08-17T10:00:37.250Z,29.86
2022-08-17T10:01:37.301Z,30.04
2022-08-17T10:02:37.230Z,29.47
2022-08-17T10:03:37.257Z,29.36
2022-08-17T10:04:37.211Z,28.40
2022-08-17T10:05:37.201Z,28.79
2022-08-17T10:06:37.222Z,28.88
2022-08-17T10:07:37.182Z,29.18
2022-08-17T10:08:37.177Z,29.16
2022-08-17T10:09:37.169Z,28.97
2022-08-17T10:10:37.159Z,28.47
2022-08-17T10:11:37.164Z,29.15
2022-08-17T10:12:37.140Z,29.24
2022-08-17T10:13:37.159Z,28.41
2022-08-17T10:14:43.974Z,26.25
2022-08-17T10:15:38.129Z,25.98
2022-08-17T10:16:37.126Z,26.07
2022-08-17T10:17:37.100Z,26.76
2022-08-17T10:18:37.092Z,24.92
2022-08-17T10:19:37.072Z,26.79
2022-08-17T10:20:37.075Z,26.29
2022-08-17T10:21:37.245Z,24.80
2022-08-17T10:22:37.888Z,24.93
2022-08-17T10:23:37.045Z,23.76
2022-08-17T10:24:37.036Z,24.63
2022-08-17T10:25:54.261Z,25.50
2022-08-17T10:26:46.255Z,25.24
2022-08-17T10:27:38.067Z,25.01
2022-08-17T10:28:37.011Z,25.71
2022-08-17T10:29:47.278Z,26.70
2022-08-17T10:30:38.075Z,27.80
2022-08-17T10:31:37.008Z,29.19
2022-08-17T10:32:36.970Z,29.22
2022-08-17T10:33:36.953Z,30.70
2022-08-17T10:34:41.106Z,30.03
2022-08-17T10:35:36.938Z,30.34
2022-08-17T10:36:36.962Z,31.05
2022-08-17T10:37:36.928Z,31.75
2022-08-17T10:38:36.920Z,32.17
2022-08-17T10:39:52.609Z,32.30
2022-08-17T10:40:37.905Z,32.42
2022-08-17T10:41:40.210Z,33.39
2022-08-17T10:42:36.879Z,33.31
2022-08-17T10:43:36.865Z,34.21
2022-08-17T10:44:40.799Z,34.90
2022-08-17T10:45:36.846Z,34.51
2022-08-17T10:46:36.887Z,34.59
2022-08-17T10:47:54.747Z,33.61
2022-08-17T10:48:37.909Z,33.39
2022-08-17T10:49:36.815Z,33.79
2022-08-17T10:50:36.813Z,34.28
2022-08-17T10:51:36.820Z,33.29
2022-08-17T10:52:36.783Z,33.29
2022-08-17T10:53:36.783Z,33.20
2022-08-17T10:54:36.771Z,33.77
2022-08-17T10:55:36.770Z,33.39
2022-08-17T10:56:36.772Z,33.69
2022-08-17T10:57:36.744Z,33.59
2022-08-17T10:58:36.741Z,33.20
2022-08-17T10:59:36.729Z,33.39
2022-08-17T11:00:36.887Z,33.98
2022-08-17T11:01:36.731Z,34.78
2022-08-17T11:02:36.704Z,34.51
2022-08-17T11:03:36.715Z,35.11
2022-08-17T11:04:36.684Z,35.11
2022-08-17T11:05:40.202Z,35.82
2022-08-17T11:06:37.704Z,35.83
2022-08-17T11:07:36.656Z,35.34
2022-08-17T11:08:36.649Z,35.83
2022-08-17T11:09:36.667Z,35.74
2022-08-17T11:10:36.628Z,35.83
2022-08-17T11:11:36.618Z,35.95
2022-08-17T11:12:36.631Z,35.95
2022-08-17T11:13:36.594Z,35.85
2022-08-17T11:14:36.592Z,37.05
2022-08-17T11:15:36.608Z,37.15
2022-08-17T11:16:36.576Z,36.34
2022-08-17T11:17:36.569Z,35.95
2022-08-17T11:18:36.603Z,35.66
2022-08-17T11:19:36.544Z,36.65
2022-08-17T11:20:36.544Z,36.55
2022-08-17T11:21:36.518Z,37.26
2022-08-17T11:22:36.707Z,37.07
2022-08-17T11:23:36.498Z,36.57
2022-08-17T11:24:36.492Z,37.85
2022-08-17T11:25:36.478Z,37.97
2022-08-17T11:26:36.493Z,37.77
2022-08-17T11:27:36.478Z,37.97
2022-08-17T11:28:36.457Z,38.26
2022-08-17T11:29:36.444Z,37.67
2022-08-17T11:30:36.436Z,38.07
2022-08-17T11:31:38.280Z,38.36
2022-08-17T11:32:36.427Z,38.58
2022-08-17T11:33:36.857Z,38.26
2022-08-17T11:34:36.402Z,38.26
2022-08-17T11:35:36.393Z,37.79
2022-08-17T11:36:36.515Z,37.79
2022-08-17T11:37:36.387Z,37.89
2022-08-17T11:38:36.369Z,38.30
2022-08-17T11:39:36.440Z,38.60
2022-08-17T11:40:36.370Z,38.70
2022-08-17T11:41:36.341Z,38.49
2022-08-17T11:42:36.345Z,38.68
2022-08-17T11:43:39.564Z,38.46
2022-08-17T11:44:37.326Z,37.87
2022-08-17T11:45:36.311Z,36.88
2022-08-17T11:46:36.305Z,37.77
2022-08-17T11:47:36.306Z,37.07
2022-08-17T11:48:36.366Z,37.36
2022-08-17T11:49:36.265Z,36.87
2022-08-17T11:50:36.296Z,36.85
2022-08-17T11:51:36.256Z,36.85
2022-08-17T11:52:36.259Z,36.05
2022-08-17T11:53:36.246Z,35.14
2022-08-17T11:54:36.225Z,35.41
2022-08-17T11:55:39.664Z,35.97
2022-08-17T11:56:37.217Z,34.49
2022-08-17T11:57:36.269Z,34.10
2022-08-17T11:58:36.192Z,33.98
2022-08-17T11:59:36.179Z,33.59
2022-08-17T12:00:36.176Z,33.69
2022-08-17T12:01:36.163Z,33.69
2022-08-17T12:02:36.218Z,33.89
2022-08-17T12:03:36.139Z,34.67
2022-08-17T12:04:36.225Z,34.57
2022-08-17T12:05:36.128Z,33.87
2022-08-17T12:06:36.117Z,33.97
2022-08-17T12:07:36.120Z,34.65
2022-08-17T12:08:36.100Z,34.86
2022-08-17T12:09:36.085Z,33.79
2022-08-17T12:10:36.079Z,32.82
2022-08-17T12:12:04.626Z,33.62
2022-08-17T12:12:37.072Z,34.70
2022-08-17T12:13:38.531Z,34.90
2022-08-17T12:15:05.696Z,34.21
2022-08-17T12:15:37.037Z,35.80
2022-08-17T12:16:36.024Z,35.41
2022-08-17T12:17:41.364Z,36.01
2022-08-17T12:18:36.001Z,35.85
2022-08-17T12:19:35.994Z,37.13
2022-08-17T12:20:35.989Z,36.07
2022-08-17T12:21:35.993Z,37.15
2022-08-17T12:22:35.983Z,36.46
2022-08-17T12:23:35.966Z,36.28
2022-08-17T12:24:35.952Z,37.18
2022-08-17T12:25:35.937Z,37.97
2022-08-17T12:26:35.935Z,37.97
2022-08-17T12:28:04.455Z,37.85
2022-08-17T12:28:36.919Z,37.46
2022-08-17T12:29:39.085Z,36.67
2022-08-17T12:30:35.901Z,37.76
2022-08-17T12:31:35.895Z,37.95
2022-08-17T12:32:35.932Z,38.15
2022-08-17T12:33:35.871Z,38.07
2022-08-17T12:34:35.866Z,37.57
2022-08-17T12:35:35.849Z,38.07
2022-08-17T12:36:35.864Z,38.07
2022-08-17T12:37:35.849Z,38.58
2022-08-17T12:38:35.834Z,37.99
2022-08-17T12:39:35.856Z,38.18
2022-08-17T12:40:35.855Z,38.49
2022-08-17T12:41:35.797Z,38.99
2022-08-17T12:42:35.793Z,38.81
2022-08-17T12:43:35.827Z,39.50
2022-08-17T12:44:35.776Z,39.11
2022-08-17T12:45:36.758Z,39.01
2022-08-17T12:46:35.764Z,39.32
2022-08-17T12:47:35.745Z,39.32
2022-08-17T12:48:35.753Z,39.62
2022-08-17T12:49:35.737Z,39.64
2022-08-17T12:50:35.725Z,39.32
2022-08-17T12:51:35.709Z,39.94
2022-08-17T12:52:35.701Z,39.84
2022-08-17T12:53:35.706Z,39.34